YBID weather

Binda
New South Wales, Australia

Public forecast

Using degrees Celsius for public forecast. Weather courtesy of forecast.io.

METAR (pilot weather report)

Closest report is Canberra International Airport, 60.8 nm (112.6 km) S. Retrieved 2019/03/25 23:30 UTC (26 minutes ago):

YSCB 252330Z AUTO 30015KT 9999 // NCD 15/00 Q1016 RMK RF00.0/000.0 FM2330 MOD TURB BLW 5000FT TILL 0030

TAF (pilot weather forecast)

Closest forecast is Canberra International Airport, 60.8 nm (112.6 km) S. Retrieved 2019/03/25 18:00 UTC (6 hours ago):

TAF YSCB 251709Z 2518/2618 29010KT CAVOK FM252300 26014KT CAVOK BECMG 2610/2612 12005KT CAVOK